createdAt,value
2018-09-13T00:00:03.002Z,18.46
2018-09-13T00:02:31.861Z,18.48
2018-09-13T00:05:00.743Z,18.48
2018-09-13T00:07:29.567Z,18.46
2018-09-13T00:09:58.409Z,18.48
2018-09-13T00:12:27.294Z,18.42
2018-09-13T00:14:56.130Z,18.44
2018-09-13T00:17:24.956Z,18.39
2018-09-13T00:19:53.917Z,18.40
2018-09-13T00:22:23.962Z,18.38
2018-09-13T00:24:52.773Z,18.39
2018-09-13T00:27:22.878Z,18.40
2018-09-13T00:29:51.886Z,18.42
2018-09-13T00:32:20.703Z,18.43
2018-09-13T00:34:49.566Z,18.39
2018-09-13T00:37:18.418Z,18.41
2018-09-13T00:39:47.266Z,18.43
2018-09-13T00:42:16.098Z,18.38
2018-09-13T00:44:44.908Z,18.37
2018-09-13T00:47:14.355Z,18.45
2018-09-13T00:49:43.898Z,18.48
2018-09-13T00:52:12.785Z,18.47
2018-09-13T00:54:41.613Z,18.52
2018-09-13T00:57:10.486Z,18.46
2018-09-13T00:59:39.303Z,18.51
2018-09-13T01:02:08.174Z,18.50
2018-09-13T01:04:37.335Z,18.47
2018-09-13T01:07:06.262Z,18.52
2018-09-13T01:09:35.106Z,18.58
2018-09-13T01:12:03.938Z,18.59
2018-09-13T01:14:32.791Z,18.62
2018-09-13T01:17:01.629Z,18.66
2018-09-13T01:19:30.451Z,18.64
2018-09-13T01:21:59.264Z,18.64
2018-09-13T01:24:28.100Z,18.51
2018-09-13T01:26:56.953Z,18.52
2018-09-13T01:29:25.790Z,18.54
2018-09-13T01:31:54.669Z,18.42
2018-09-13T01:34:23.493Z,18.73
2018-09-13T01:36:52.281Z,18.78
2018-09-13T01:39:21.202Z,18.83
2018-09-13T01:41:50.043Z,18.87
2018-09-13T01:44:18.880Z,18.89
2018-09-13T01:46:47.741Z,18.88
2018-09-13T01:49:16.573Z,18.87
2018-09-13T01:51:45.496Z,18.79
2018-09-13T01:54:14.347Z,18.78
2018-09-13T01:56:43.171Z,18.76
2018-09-13T01:59:12.033Z,18.75
2018-09-13T02:01:40.885Z,18.66
2018-09-13T02:04:09.691Z,18.60
2018-09-13T02:06:38.566Z,18.63
2018-09-13T02:09:11.197Z,18.63
2018-09-13T02:11:40.037Z,18.54
2018-09-13T02:14:08.858Z,18.49
2018-09-13T02:16:37.714Z,18.54
2018-09-13T02:19:06.841Z,18.55
2018-09-13T02:21:35.633Z,18.47
2018-09-13T02:24:05.863Z,18.36
2018-09-13T02:26:34.704Z,18.39
2018-09-13T02:29:03.665Z,18.41
2018-09-13T02:31:32.530Z,18.44
2018-09-13T02:34:01.350Z,18.39
2018-09-13T02:36:32.598Z,18.40
2018-09-13T02:39:01.483Z,18.37
2018-09-13T02:41:30.296Z,18.37
2018-09-13T02:43:59.104Z,18.31
2018-09-13T02:46:28.067Z,18.28
2018-09-13T02:48:56.913Z,18.29
2018-09-13T02:51:25.730Z,18.29
2018-09-13T02:53:54.585Z,18.30
2018-09-13T02:56:23.401Z,18.32
2018-09-13T02:58:52.243Z,18.25
2018-09-13T03:01:21.097Z,18.25
2018-09-13T03:03:49.927Z,18.21
2018-09-13T03:06:18.754Z,18.17
2018-09-13T03:08:48.534Z,18.22
2018-09-13T03:11:17.382Z,18.17
2018-09-13T03:13:46.206Z,18.23
2018-09-13T03:16:15.318Z,18.25
2018-09-13T03:18:44.165Z,18.25
2018-09-13T03:21:13.028Z,18.31
2018-09-13T03:23:43.181Z,18.29
2018-09-13T03:26:12.029Z,18.27
2018-09-13T03:28:40.939Z,18.31
2018-09-13T03:31:11.066Z,18.27
2018-09-13T03:33:39.981Z,18.29
2018-09-13T03:36:08.837Z,18.31
2018-09-13T03:38:37.714Z,18.28
2018-09-13T03:41:06.564Z,18.35
2018-09-13T03:43:35.502Z,18.25
2018-09-13T03:46:05.678Z,18.29
2018-09-13T03:48:34.530Z,18.24
2018-09-13T03:51:03.641Z,18.34
2018-09-13T03:53:33.789Z,18.29
2018-09-13T03:56:02.717Z,18.29
2018-09-13T03:58:31.532Z,18.37
2018-09-13T04:01:01.906Z,18.44
2018-09-13T04:03:30.904Z,18.48
2018-09-13T04:05:59.725Z,18.44
2018-09-13T04:08:29.268Z,18.49
2018-09-13T04:10:58.131Z,18.51
2018-09-13T04:13:27.050Z,18.54
2018-09-13T04:15:55.904Z,18.51
2018-09-13T04:18:24.735Z,18.56
2018-09-13T04:20:53.577Z,18.55
2018-09-13T04:23:22.616Z,18.57
2018-09-13T04:25:51.421Z,18.58
2018-09-13T04:28:21.487Z,18.58
2018-09-13T04:30:50.602Z,18.54
2018-09-13T04:33:19.561Z,18.63
2018-09-13T04:35:48.681Z,18.68
2018-09-13T04:38:17.454Z,18.65
2018-09-13T04:40:46.291Z,18.74
2018-09-13T04:43:15.311Z,18.78
2018-09-13T04:45:44.255Z,18.88
2018-09-13T04:48:13.203Z,18.94
2018-09-13T04:50:42.036Z,18.98
2018-09-13T04:53:10.868Z,19.04
2018-09-13T04:55:41.029Z,19.15
2018-09-13T04:58:10.014Z,19.24
2018-09-13T05:00:38.838Z,19.39
2018-09-13T05:03:07.719Z,19.55
2018-09-13T05:05:36.562Z,19.68
2018-09-13T05:08:05.429Z,19.83
2018-09-13T05:10:34.289Z,19.90
2018-09-13T05:13:03.132Z,20.12
2018-09-13T05:15:31.970Z,20.26
2018-09-13T05:18:00.838Z,20.24
2018-09-13T05:20:29.685Z,20.46
2018-09-13T05:22:58.515Z,20.51
2018-09-13T05:25:27.394Z,20.52
2018-09-13T05:27:56.194Z,20.52
2018-09-13T05:30:25.051Z,20.60
2018-09-13T05:32:54.276Z,20.62
2018-09-13T05:35:23.703Z,20.64
2018-09-13T05:37:52.526Z,20.69
2018-09-13T05:40:21.457Z,20.74
2018-09-13T05:42:50.414Z,20.74
2018-09-13T05:45:19.235Z,20.78
2018-09-13T05:47:48.048Z,20.81
2018-09-13T05:50:16.898Z,20.85
2018-09-13T05:52:45.721Z,20.81
2018-09-13T05:55:14.538Z,20.83
2018-09-13T05:57:43.454Z,20.85
2018-09-13T06:00:12.616Z,20.92
2018-09-13T06:02:41.439Z,21.00
2018-09-13T06:05:11.691Z,21.09
2018-09-13T06:07:40.530Z,21.24
2018-09-13T06:10:09.519Z,21.23
2018-09-13T06:12:38.331Z,21.48
2018-09-13T06:15:07.210Z,21.58
2018-09-13T06:17:36.095Z,21.69
2018-09-13T06:20:04.977Z,21.89
2018-09-13T06:22:33.923Z,21.79
2018-09-13T06:25:02.798Z,21.85
2018-09-13T06:27:31.634Z,22.05
2018-09-13T06:30:00.503Z,22.04
2018-09-13T06:32:29.346Z,22.24
2018-09-13T06:34:59.200Z,22.46
2018-09-13T06:37:28.464Z,22.46
2018-09-13T06:39:57.281Z,22.63
2018-09-13T06:42:26.147Z,22.56
2018-09-13T06:44:55.123Z,22.39
2018-09-13T06:47:24.005Z,22.45
2018-09-13T06:49:52.938Z,22.67
2018-09-13T06:52:21.791Z,22.89
2018-09-13T06:54:50.683Z,22.75
2018-09-13T06:57:20.886Z,22.72
2018-09-13T06:59:49.763Z,22.68
2018-09-13T07:02:18.641Z,22.80
2018-09-13T07:04:48.791Z,22.75
2018-09-13T07:07:17.773Z,22.63
2018-09-13T07:09:46.587Z,22.66
2018-09-13T07:12:15.496Z,22.92
2018-09-13T07:14:44.310Z,23.15
2018-09-13T07:17:13.109Z,23.10
2018-09-13T07:19:43.205Z,23.20
2018-09-13T07:22:12.129Z,23.11
2018-09-13T07:24:41.343Z,23.15
2018-09-13T07:27:10.247Z,23.02
2018-09-13T07:29:39.276Z,23.32
2018-09-13T07:32:08.251Z,23.61
2018-09-13T07:34:37.328Z,23.33
2018-09-13T07:37:06.334Z,23.41
2018-09-13T07:39:35.378Z,23.56
2018-09-13T07:42:05.698Z,23.80
2018-09-13T07:44:34.740Z,23.83
2018-09-13T07:47:03.762Z,24.14
2018-09-13T07:49:33.021Z,24.02
2018-09-13T07:52:01.860Z,24.71
2018-09-13T07:54:30.829Z,25.03
2018-09-13T07:56:59.738Z,24.83
2018-09-13T07:59:29.006Z,24.98
2018-09-13T08:01:58.474Z,25.10
2018-09-13T08:04:27.413Z,24.84
2018-09-13T08:06:56.345Z,24.36
2018-09-13T08:09:25.249Z,24.33
2018-09-13T08:11:54.217Z,24.18
2018-09-13T08:14:23.086Z,24.44
2018-09-13T08:16:52.018Z,24.33
2018-09-13T08:19:21.257Z,23.97
2018-09-13T08:24:17.888Z,23.99
2018-09-13T08:26:48.326Z,23.79
2018-09-13T08:29:17.247Z,23.86
2018-09-13T08:31:46.172Z,23.74
2018-09-13T08:34:16.337Z,23.90
2018-09-13T08:36:45.316Z,23.97
2018-09-13T08:39:14.189Z,24.13
2018-09-13T08:41:44.486Z,23.90
2018-09-13T08:44:13.421Z,23.96
2018-09-13T08:46:43.526Z,23.99
2018-09-13T08:49:13.680Z,23.88
2018-09-13T08:51:42.640Z,24.22
2018-09-13T08:54:11.471Z,24.03
2018-09-13T08:56:41.782Z,24.09
2018-09-13T08:59:12.025Z,24.17
2018-09-13T09:01:40.940Z,24.33
2018-09-13T09:04:09.827Z,24.42
2018-09-13T09:06:38.782Z,24.48
2018-09-13T09:09:10.837Z,24.57
2018-09-13T09:11:39.905Z,24.37
2018-09-13T09:14:08.817Z,24.19
2018-09-13T09:16:37.698Z,24.30
2018-09-13T09:19:07.871Z,24.33
2018-09-13T09:21:36.983Z,24.44
2018-09-13T09:24:05.926Z,24.21
2018-09-13T09:26:34.901Z,24.29
2018-09-13T09:29:03.795Z,24.64
2018-09-13T09:31:32.787Z,24.94
2018-09-13T09:34:01.733Z,25.23
2018-09-13T09:36:30.650Z,25.28
2018-09-13T09:38:59.571Z,25.61
2018-09-13T09:41:28.463Z,25.82
2018-09-13T09:43:57.400Z,25.80
2018-09-13T09:46:26.232Z,26.06
2018-09-13T09:48:56.433Z,26.29
2018-09-13T09:51:25.693Z,25.90
2018-09-13T09:53:54.574Z,25.89
2018-09-13T09:56:23.510Z,26.03
2018-09-13T09:58:52.682Z,26.14
2018-09-13T10:01:26.673Z,26.19
2018-09-13T10:03:56.683Z,26.22
2018-09-13T10:06:25.571Z,25.73
2018-09-13T10:08:54.568Z,25.41
2018-09-13T10:11:23.505Z,25.24
2018-09-13T10:13:52.469Z,25.25
2018-09-13T10:16:26.561Z,25.43
2018-09-13T10:19:00.492Z,25.67
2018-09-13T10:21:34.477Z,25.65
2018-09-13T10:24:08.402Z,25.09
2018-09-13T10:26:42.597Z,24.96
2018-09-13T10:29:16.541Z,25.07
2018-09-13T10:31:50.534Z,25.11
2018-09-13T10:34:24.479Z,25.15
2018-09-13T10:36:58.337Z,25.06
2018-09-13T10:39:33.550Z,25.33
2018-09-13T10:42:07.341Z,25.39
2018-09-13T10:44:41.218Z,25.43
2018-09-13T10:47:15.121Z,25.55
2018-09-13T10:49:50.321Z,25.29
2018-09-13T10:52:22.546Z,25.19
2018-09-13T10:54:51.551Z,25.34
2018-09-13T10:57:25.564Z,25.41
2018-09-13T10:59:55.749Z,25.54
2018-09-13T11:02:24.662Z,25.24
2018-09-13T11:04:53.701Z,25.36
2018-09-13T11:07:22.665Z,25.50
2018-09-13T11:09:51.904Z,25.31
2018-09-13T11:12:26.587Z,25.14
2018-09-13T11:15:18.622Z,25.40
2018-09-13T11:17:47.582Z,25.59
2018-09-13T11:20:16.540Z,25.82
2018-09-13T11:22:49.818Z,25.71
2018-09-13T11:25:18.722Z,25.92
2018-09-13T11:27:47.714Z,25.94
2018-09-13T11:30:16.699Z,25.97
2018-09-13T11:32:46.915Z,26.05
2018-09-13T11:35:16.192Z,26.10
2018-09-13T11:37:44.705Z,26.13
2018-09-13T11:40:14.127Z,25.97
2018-09-13T11:42:43.487Z,25.69
2018-09-13T11:45:12.574Z,25.56
2018-09-13T11:47:43.382Z,25.59
2018-09-13T11:50:12.451Z,25.39
2018-09-13T11:52:41.357Z,25.59
2018-09-13T11:55:11.466Z,25.61
2018-09-13T11:57:40.361Z,25.56
2018-09-13T12:00:09.256Z,25.45
2018-09-13T12:02:38.165Z,25.59
2018-09-13T12:05:07.113Z,25.57
2018-09-13T12:07:36.061Z,25.50
2018-09-13T12:10:05.148Z,25.48
2018-09-13T12:12:34.144Z,25.31
2018-09-13T12:15:03.062Z,25.17
2018-09-13T12:17:31.963Z,25.26
2018-09-13T12:20:00.863Z,25.28
2018-09-13T12:22:29.796Z,25.26
2018-09-13T12:25:00.291Z,25.19
2018-09-13T12:27:29.335Z,25.14
2018-09-13T12:29:58.378Z,25.16
2018-09-13T12:32:28.655Z,25.10
2018-09-13T12:34:57.563Z,25.06
2018-09-13T12:37:27.115Z,25.30
2018-09-13T12:39:56.082Z,25.29
2018-09-13T12:42:25.095Z,25.06
2018-09-13T12:44:53.973Z,25.12
2018-09-13T12:47:22.878Z,25.20
2018-09-13T12:49:52.644Z,25.15
2018-09-13T12:52:21.594Z,24.96
2018-09-13T12:54:50.461Z,25.16
2018-09-13T12:57:19.378Z,24.99
2018-09-13T12:59:48.242Z,25.14
2018-09-13T13:02:17.178Z,24.94
2018-09-13T13:04:46.132Z,24.94
2018-09-13T13:07:15.055Z,25.06
2018-09-13T13:09:44.098Z,25.10
2018-09-13T13:12:12.974Z,25.29
2018-09-13T13:14:41.946Z,25.53
2018-09-13T13:17:10.895Z,25.21
2018-09-13T13:19:39.806Z,25.17
2018-09-13T13:22:08.674Z,24.97
2018-09-13T13:24:37.554Z,25.11
2018-09-13T13:27:06.512Z,25.09
2018-09-13T13:29:35.356Z,25.09
2018-09-13T13:32:04.266Z,24.96
2018-09-13T13:34:33.218Z,25.00
2018-09-13T13:37:02.118Z,24.97
2018-09-13T13:39:32.058Z,24.99
2018-09-13T13:42:00.994Z,25.11
2018-09-13T13:44:29.907Z,24.94
2018-09-13T13:47:00.718Z,24.99
2018-09-13T13:49:29.575Z,25.11
2018-09-13T13:51:58.442Z,24.98
2018-09-13T13:54:27.418Z,24.83
2018-09-13T13:56:56.289Z,24.98
2018-09-13T13:59:25.109Z,24.84
2018-09-13T14:01:54.068Z,24.71
2018-09-13T14:04:22.981Z,24.66
2018-09-13T14:06:51.811Z,24.66
2018-09-13T14:09:20.863Z,24.64
2018-09-13T14:11:51.190Z,25.04
2018-09-13T14:14:20.111Z,25.19
2018-09-13T14:16:49.746Z,25.14
2018-09-13T14:19:19.116Z,24.96
2018-09-13T14:21:48.099Z,24.84
2018-09-13T14:24:17.036Z,24.81
2018-09-13T14:26:45.969Z,24.80
2018-09-13T14:29:14.927Z,24.71
2018-09-13T14:31:43.874Z,24.63
2018-09-13T14:34:12.721Z,24.52
2018-09-13T14:36:42.895Z,24.45
2018-09-13T14:39:12.375Z,24.51
2018-09-13T14:41:41.383Z,24.68
2018-09-13T14:44:11.600Z,24.97
2018-09-13T14:46:41.503Z,25.13
2018-09-13T14:49:10.464Z,25.46
2018-09-13T14:51:40.935Z,25.15
2018-09-13T14:54:09.887Z,25.40
2018-09-13T14:56:38.840Z,25.38
2018-09-13T14:59:09.282Z,25.22
2018-09-13T15:01:38.203Z,24.97
2018-09-13T15:04:07.049Z,24.91
2018-09-13T15:06:36.039Z,24.65
2018-09-13T15:09:07.582Z,24.19
2018-09-13T15:11:36.442Z,24.32
2018-09-13T15:14:06.919Z,24.32
2018-09-13T15:16:35.867Z,24.09
2018-09-13T15:19:04.738Z,24.12
2018-09-13T15:21:33.751Z,24.07
2018-09-13T15:24:02.601Z,24.02
2018-09-13T15:26:31.474Z,24.02
2018-09-13T15:29:00.461Z,23.84
2018-09-13T15:31:30.549Z,23.63
2018-09-13T15:33:59.418Z,23.62
2018-09-13T15:36:28.354Z,23.46
2018-09-13T15:38:57.258Z,23.36
2018-09-13T15:41:26.097Z,23.35
2018-09-13T15:43:55.123Z,23.37
2018-09-13T15:46:25.189Z,23.31
2018-09-13T15:48:54.084Z,23.10
2018-09-13T15:51:22.970Z,23.12
2018-09-13T15:53:51.868Z,23.07
2018-09-13T15:56:20.809Z,22.90
2018-09-13T15:58:49.782Z,22.82
2018-09-13T16:01:19.885Z,22.79
2018-09-13T16:03:48.832Z,22.76
2018-09-13T16:06:17.670Z,22.62
2018-09-13T16:08:47.901Z,22.58
2018-09-13T16:11:16.833Z,22.55
2018-09-13T16:13:45.742Z,22.36
2018-09-13T16:16:15.998Z,22.36
2018-09-13T16:18:44.846Z,22.26
2018-09-13T16:21:13.795Z,22.23
2018-09-13T16:23:43.362Z,22.20
2018-09-13T16:26:12.313Z,22.10
2018-09-13T16:28:41.251Z,22.08
2018-09-13T16:31:10.132Z,22.04
2018-09-13T16:33:39.064Z,21.91
2018-09-13T16:36:10.854Z,21.89
2018-09-13T16:38:47.886Z,21.81
2018-09-13T16:41:22.006Z,21.73
2018-09-13T16:43:56.076Z,21.71
2018-09-13T16:46:30.172Z,21.67
2018-09-13T16:48:59.149Z,21.57
2018-09-13T16:51:29.063Z,21.40
2018-09-13T16:53:57.988Z,21.37
2018-09-13T16:56:28.935Z,21.31
2018-09-13T16:58:57.907Z,21.30
2018-09-13T17:01:26.790Z,21.24
2018-09-13T17:03:55.771Z,21.22
2018-09-13T17:06:24.826Z,21.23
2018-09-13T17:08:53.659Z,21.24
2018-09-13T17:11:22.552Z,21.15
2018-09-13T17:13:51.518Z,21.14
2018-09-13T17:16:20.361Z,21.09
2018-09-13T17:18:49.286Z,20.98
2018-09-13T17:21:18.110Z,20.90
2018-09-13T17:23:46.929Z,20.89
2018-09-13T17:26:15.841Z,20.93
2018-09-13T17:28:44.807Z,20.90
2018-09-13T17:31:13.781Z,20.85
2018-09-13T17:33:42.774Z,20.80
2018-09-13T17:36:11.709Z,20.78
2018-09-13T17:38:40.538Z,20.62
2018-09-13T17:41:09.463Z,20.67
2018-09-13T17:43:38.374Z,20.60
2018-09-13T17:46:07.231Z,20.50
2018-09-13T17:48:36.098Z,20.47
2018-09-13T17:51:05.021Z,20.54
2018-09-13T17:53:33.929Z,20.52
2018-09-13T17:56:02.759Z,20.56
2018-09-13T17:58:31.696Z,20.62
2018-09-13T18:01:00.580Z,20.49
2018-09-13T18:03:29.556Z,20.40
2018-09-13T18:05:58.489Z,20.50
2018-09-13T18:08:27.332Z,20.50
2018-09-13T18:10:56.200Z,20.56
2018-09-13T18:13:25.205Z,20.59
2018-09-13T18:15:54.020Z,20.63
2018-09-13T18:18:22.846Z,20.53
2018-09-13T18:20:51.747Z,20.49
2018-09-13T18:23:20.562Z,20.47
2018-09-13T18:25:49.409Z,20.51
2018-09-13T18:28:18.321Z,20.42
2018-09-13T18:30:47.188Z,20.41
2018-09-13T18:33:16.094Z,20.49
2018-09-13T18:35:46.383Z,20.51
2018-09-13T18:38:15.224Z,20.52
2018-09-13T18:40:44.323Z,20.44
2018-09-13T18:43:13.153Z,20.44
2018-09-13T18:45:42.084Z,20.47
2018-09-13T18:48:12.266Z,20.20
2018-09-13T18:50:42.467Z,19.99
2018-09-13T18:53:11.354Z,19.83
2018-09-13T18:55:40.414Z,19.80
2018-09-13T18:58:10.616Z,19.84
2018-09-13T19:00:39.580Z,19.87
2018-09-13T19:03:08.499Z,19.80
2018-09-13T19:05:37.412Z,19.82
2018-09-13T19:08:06.655Z,19.94
2018-09-13T19:10:37.031Z,20.08
2018-09-13T19:13:05.977Z,20.09
2018-09-13T19:15:34.837Z,19.86
2018-09-13T19:18:05.294Z,19.79
2018-09-13T19:20:34.297Z,19.76
2018-09-13T19:23:03.130Z,19.85
2018-09-13T19:25:32.146Z,19.84
2018-09-13T19:28:01.135Z,19.82
2018-09-13T19:30:30.156Z,19.86
2018-09-13T19:32:59.426Z,19.97
2018-09-13T19:35:28.470Z,20.06
2018-09-13T19:37:57.443Z,20.13
2018-09-13T19:40:26.476Z,20.09
2018-09-13T19:43:00.515Z,20.01
2018-09-13T19:45:29.501Z,19.94
2018-09-13T19:47:58.473Z,19.98
2018-09-13T19:50:28.893Z,19.94
2018-09-13T19:52:57.909Z,19.87
2018-09-13T19:55:27.089Z,19.85
2018-09-13T19:57:57.342Z,19.93
2018-09-13T20:00:26.474Z,19.80
2018-09-13T20:02:55.796Z,19.80
2018-09-13T20:05:24.779Z,19.57
2018-09-13T20:07:53.666Z,19.56
2018-09-13T20:10:22.507Z,19.54
2018-09-13T20:12:52.742Z,19.56
2018-09-13T20:15:21.620Z,19.63
2018-09-13T20:17:50.472Z,19.71
2018-09-13T20:20:20.664Z,19.74
2018-09-13T20:22:49.571Z,19.77
2018-09-13T20:25:18.661Z,19.85
2018-09-13T20:27:47.535Z,20.01
2018-09-13T20:30:16.381Z,19.99
2018-09-13T20:32:45.240Z,20.01
2018-09-13T20:35:14.105Z,19.95
2018-09-13T20:37:42.919Z,19.98
2018-09-13T20:40:11.734Z,20.04
2018-09-13T20:42:40.675Z,19.96
2018-09-13T20:45:09.516Z,19.86
2018-09-13T20:47:38.375Z,19.81
2018-09-13T20:50:07.537Z,19.72
2018-09-13T20:52:36.604Z,19.76
2018-09-13T20:55:05.445Z,19.72
2018-09-13T20:57:35.687Z,19.74
2018-09-13T21:00:04.599Z,19.76
2018-09-13T21:02:33.458Z,19.76
2018-09-13T21:05:02.337Z,19.82
2018-09-13T21:07:31.190Z,19.81
2018-09-13T21:10:00.048Z,19.75
2018-09-13T21:12:28.902Z,19.68
2018-09-13T21:14:57.737Z,19.52
2018-09-13T21:17:26.572Z,19.38
2018-09-13T21:19:55.459Z,19.22
2018-09-13T21:22:24.278Z,19.09
2018-09-13T21:24:53.110Z,19.13
2018-09-13T21:27:22.003Z,19.12
2018-09-13T21:29:51.056Z,19.06
2018-09-13T21:32:19.946Z,19.01
2018-09-13T21:34:48.796Z,19.05
2018-09-13T21:37:17.685Z,19.07
2018-09-13T21:39:47.939Z,19.05
2018-09-13T21:42:16.820Z,18.96
2018-09-13T21:44:45.775Z,18.96
2018-09-13T21:47:14.668Z,18.99
2018-09-13T21:49:43.533Z,19.01
2018-09-13T21:52:12.391Z,18.91
2018-09-13T21:54:41.307Z,18.95
2018-09-13T21:57:10.113Z,18.96
2018-09-13T21:59:38.962Z,18.93
2018-09-13T22:02:07.980Z,18.81
2018-09-13T22:04:36.802Z,18.75
2018-09-13T22:07:05.612Z,18.73
2018-09-13T22:09:34.521Z,18.76
2018-09-13T22:12:04.355Z,18.71
2018-09-13T22:14:33.211Z,18.66
2018-09-13T22:17:02.139Z,18.66
2018-09-13T22:19:30.947Z,18.67
2018-09-13T22:21:59.753Z,18.79
2018-09-13T22:24:28.594Z,18.69
2018-09-13T22:26:57.437Z,18.70
2018-09-13T22:29:26.258Z,18.64
2018-09-13T22:31:55.155Z,18.62
2018-09-13T22:34:23.962Z,18.60
2018-09-13T22:36:52.792Z,18.61
2018-09-13T22:39:21.642Z,18.68
2018-09-13T22:41:50.477Z,18.69
2018-09-13T22:44:19.332Z,18.77
2018-09-13T22:46:49.411Z,18.82
2018-09-13T22:49:20.651Z,18.83
2018-09-13T22:51:49.526Z,18.71
2018-09-13T22:54:18.345Z,18.80
2018-09-13T22:56:47.148Z,18.74
2018-09-13T22:59:16.062Z,18.68
2018-09-13T23:01:44.861Z,18.67
2018-09-13T23:04:13.683Z,18.67
2018-09-13T23:06:42.538Z,18.65
2018-09-13T23:09:12.374Z,18.67
2018-09-13T23:11:41.484Z,18.65
2018-09-13T23:14:11.563Z,18.61
2018-09-13T23:16:40.391Z,18.63
2018-09-13T23:19:09.223Z,18.72
2018-09-13T23:21:38.111Z,18.59
2018-09-13T23:24:06.957Z,18.57
2018-09-13T23:26:35.791Z,18.57
2018-09-13T23:29:04.720Z,18.59
2018-09-13T23:31:33.526Z,18.58
2018-09-13T23:34:02.351Z,18.61
2018-09-13T23:36:32.682Z,18.60
2018-09-13T23:39:01.577Z,18.57
2018-09-13T23:41:30.418Z,18.50
2018-09-13T23:43:59.458Z,18.50
2018-09-13T23:46:28.347Z,18.44
2018-09-13T23:48:57.185Z,18.46
2018-09-13T23:51:26.064Z,18.49
2018-09-13T23:53:54.876Z,18.41
2018-09-13T23:56:23.695Z,18.38
2018-09-13T23:58:52.586Z,18.39
